Time;durP1;ratioP1;P1;durP2;ratioP2;P2;SDS_P1;SDS_P2;PMS_P1;PMS_P2;Temp;Humidity;BMP_temperature;BMP_pressure;BME280_temperature;BME280_humidity;BME280_pressure;Samples;Min_cycle;Max_cycle;Signal;HPM_P1;HPM_P2
2024/01/26 00:01:33;;;;;;;0.00;0.00;;;9.30;99.90;;;;;;5091922;28;20168;-67
2024/01/26 00:03:59;;;;;;;0.08;0.08;;;9.30;99.90;;;;;;5092171;28;20182;-67
2024/01/26 00:06:25;;;;;;;0.00;0.00;;;9.30;99.90;;;;;;5092135;28;20646;-65
2024/01/26 00:08:50;;;;;;;0.00;0.00;;;9.30;99.90;;;;;;5091984;28;20758;-66
2024/01/26 00:11:18;;;;;;;0.22;0.22;;;9.30;99.90;;;;;;5091780;28;20644;-66
2024/01/26 00:13:43;;;;;;;0.00;0.00;;;9.30;99.90;;;;;;5091655;28;20192;-67
2024/01/26 00:16:09;;;;;;;0.00;0.00;;;9.30;99.90;;;;;;5091802;28;20650;-66
2024/01/26 00:18:35;;;;;;;0.00;0.00;;;9.30;99.90;;;;;;5091519;28;20251;-68
2024/01/26 00:21:00;;;;;;;0.00;0.00;;;9.40;99.90;;;;;;5091988;28;20275;-67
2024/01/26 00:23:26;;;;;;;0.00;0.00;;;9.40;99.90;;;;;;5091513;28;20263;-66
2024/01/26 00:25:52;;;;;;;0.00;0.00;;;9.40;99.90;;;;;;5091862;28;20203;-66
2024/01/26 00:28:17;;;;;;;0.10;0.10;;;9.40;99.90;;;;;;5091491;28;20184;-66
2024/01/26 00:30:43;;;;;;;0.00;0.00;;;9.40;99.90;;;;;;5091888;28;20223;-66
2024/01/26 00:33:08;;;;;;;0.00;0.00;;;9.40;99.90;;;;;;5091832;28;20184;-66
2024/01/26 00:35:34;;;;;;;0.00;0.00;;;9.40;99.90;;;;;;5091522;28;20184;-66
2024/01/26 00:37:59;;;;;;;0.00;0.00;;;9.40;99.90;;;;;;5091487;28;20172;-66
2024/01/26 00:40:25;;;;;;;0.13;0.13;;;9.40;99.90;;;;;;5090072;28;20216;-65
2024/01/26 00:42:50;;;;;;;0.00;0.00;;;9.40;99.90;;;;;;5090088;28;20183;-65
2024/01/26 00:45:16;;;;;;;0.00;0.00;;;9.40;99.90;;;;;;5091376;28;20211;-67
2024/01/26 00:47:41;;;;;;;0.13;0.13;;;9.40;99.90;;;;;;5090906;28;20707;-65
2024/01/26 00:50:07;;;;;;;0.00;0.00;;;9.40;99.90;;;;;;5091030;28;20219;-66
2024/01/26 00:52:33;;;;;;;0.00;0.00;;;9.40;99.90;;;;;;5091069;28;20207;-66
2024/01/26 00:54:59;;;;;;;0.00;0.00;;;9.40;99.90;;;;;;5091353;28;20180;-66
2024/01/26 00:57:25;;;;;;;0.00;0.00;;;9.40;99.90;;;;;;5090889;28;20203;-65
2024/01/26 00:59:50;;;;;;;0.00;0.00;;;9.40;99.90;;;;;;5090841;28;20222;-66
2024/01/26 01:02:16;;;;;;;0.00;0.00;;;9.30;99.90;;;;;;5091020;28;20172;-66
2024/01/26 01:04:41;;;;;;;0.00;0.00;;;9.30;99.90;;;;;;5091115;28;20183;-66
2024/01/26 01:07:07;;;;;;;0.00;0.00;;;9.30;99.90;;;;;;5091067;28;20179;-66
2024/01/26 01:09:34;;;;;;;0.00;0.00;;;9.30;99.90;;;;;;5089409;28;20671;-66
2024/01/26 01:12:00;;;;;;;0.00;0.00;;;9.30;99.90;;;;;;5075216;28;20176;-66
2024/01/26 01:14:25;;;;;;;0.00;0.00;;;9.30;99.90;;;;;;5090972;28;20706;-65
2024/01/26 01:16:51;;;;;;;0.00;0.00;;;9.30;99.90;;;;;;5091129;28;20210;-65
2024/01/26 01:19:16;;;;;;;0.00;0.00;;;9.30;99.90;;;;;;5091063;28;20267;-66
2024/01/26 01:21:43;;;;;;;0.00;0.00;;;9.30;99.90;;;;;;5090818;28;20278;-66
2024/01/26 01:24:08;;;;;;;0.00;0.00;;;9.30;99.90;;;;;;5090708;28;20176;-66
2024/01/26 01:26:34;;;;;;;0.00;0.00;;;9.30;99.90;;;;;;5093185;28;20572;-66
2024/01/26 01:28:59;;;;;;;0.00;0.00;;;9.30;99.90;;;;;;5095649;28;20215;-66
2024/01/26 01:31:25;;;;;;;0.00;0.00;;;9.30;99.90;;;;;;5091685;28;20275;-65
2024/01/26 01:33:50;;;;;;;0.00;0.00;;;9.30;99.90;;;;;;5095221;28;20191;-67
2024/01/26 01:36:16;;;;;;;0.00;0.00;;;9.30;99.90;;;;;;5096248;28;20179;-66
2024/01/26 01:38:42;;;;;;;0.00;0.00;;;9.30;99.90;;;;;;5094104;28;20207;-67
2024/01/26 01:41:08;;;;;;;0.00;0.00;;;9.30;99.90;;;;;;5090736;28;20260;-66
2024/01/26 01:43:33;;;;;;;0.00;0.00;;;9.30;99.90;;;;;;5095019;28;20180;-65
2024/01/26 01:45:59;;;;;;;0.00;0.00;;;9.30;99.90;;;;;;5096062;28;20180;-65
2024/01/26 01:48:25;;;;;;;0.00;0.00;;;9.40;99.90;;;;;;5095461;28;20551;-65
2024/01/26 01:50:51;;;;;;;0.00;0.00;;;9.40;99.90;;;;;;5095463;28;20255;-66
2024/01/26 01:53:17;;;;;;;0.00;0.00;;;9.40;99.90;;;;;;5093879;28;20183;-66
2024/01/26 01:55:44;;;;;;;0.00;0.00;;;9.40;99.90;;;;;;5089623;28;20188;-66
2024/01/26 01:58:09;;;;;;;0.00;0.00;;;9.40;99.90;;;;;;5090020;28;20178;-66
2024/01/26 02:00:37;;;;;;;0.00;0.00;;;9.40;99.90;;;;;;5090484;28;20569;-67
2024/01/26 02:03:02;;;;;;;0.00;0.00;;;9.40;99.90;;;;;;5090715;28;20536;-67
2024/01/26 02:05:28;;;;;;;0.00;0.00;;;9.40;99.90;;;;;;5090592;28;20188;-66
2024/01/26 02:07:54;;;;;;;0.00;0.00;;;9.40;99.90;;;;;;5090624;28;20198;-67
2024/01/26 02:10:21;;;;;;;0.00;0.00;;;9.40;99.90;;;;;;5090333;28;20207;-66
2024/01/26 02:12:46;;;;;;;0.00;0.00;;;9.40;99.90;;;;;;5090236;28;20190;-66
2024/01/26 02:15:12;;;;;;;0.10;0.10;;;9.40;99.90;;;;;;5090558;28;20184;-66
2024/01/26 02:17:39;;;;;;;0.00;0.00;;;9.40;99.90;;;;;;5090207;28;20184;-66
2024/01/26 02:20:05;;;;;;;0.00;0.00;;;9.40;99.90;;;;;;5090166;28;20211;-66
2024/01/26 02:22:31;;;;;;;0.00;0.00;;;9.40;99.90;;;;;;5090362;28;20176;-65
2024/01/26 02:24:57;;;;;;;0.00;0.00;;;9.40;99.90;;;;;;5090456;28;20195;-66
2024/01/26 02:27:22;;;;;;;0.00;0.00;;;9.40;99.90;;;;;;5090199;28;20672;-66
2024/01/26 02:29:48;;;;;;;0.00;0.00;;;9.30;99.90;;;;;;5088522;28;20247;-65
2024/01/26 02:32:14;;;;;;;0.00;0.00;;;9.30;99.90;;;;;;5090484;28;20172;-66
2024/01/26 02:34:40;;;;;;;0.00;0.00;;;9.30;99.90;;;;;;5093593;28;20219;-66
2024/01/26 02:37:06;;;;;;;0.00;0.00;;;9.30;99.90;;;;;;5093868;28;20229;-66
2024/01/26 02:39:33;;;;;;;0.00;0.00;;;9.30;99.90;;;;;;5092422;28;20232;-66
2024/01/26 02:41:59;;;;;;;0.00;0.00;;;9.30;99.90;;;;;;5093944;28;20291;-67
2024/01/26 02:44:25;;;;;;;0.00;0.00;;;9.30;99.90;;;;;;5093615;28;20707;-66
2024/01/26 02:46:50;;;;;;;0.00;0.00;;;9.30;99.90;;;;;;5093850;28;20180;-67
2024/01/26 02:49:16;;;;;;;0.00;0.00;;;9.20;99.90;;;;;;5093901;28;20212;-66
2024/01/26 02:51:42;;;;;;;0.00;0.00;;;9.20;99.90;;;;;;5093408;28;20224;-66
2024/01/26 02:54:08;;;;;;;0.00;0.00;;;9.20;99.90;;;;;;5093555;28;20255;-66
2024/01/26 02:56:33;;;;;;;0.00;0.00;;;9.20;99.90;;;;;;5087194;28;20196;-66
2024/01/26 02:58:59;;;;;;;0.00;0.00;;;9.10;99.90;;;;;;5093550;28;20253;-67
2024/01/26 03:01:24;;;;;;;0.00;0.00;;;9.10;99.90;;;;;;5093806;28;20649;-65
2024/01/26 03:03:50;;;;;;;0.00;0.00;;;9.10;99.90;;;;;;5093272;28;20635;-66
2024/01/26 03:06:16;;;;;;;0.00;0.00;;;9.10;99.90;;;;;;5093733;28;20198;-66
2024/01/26 03:08:41;;;;;;;0.00;0.00;;;9.10;99.90;;;;;;5093007;28;20183;-66
2024/01/26 03:11:07;;;;;;;0.00;0.00;;;9.10;99.90;;;;;;5093469;28;20183;-66
2024/01/26 03:13:33;;;;;;;0.00;0.00;;;9.10;99.90;;;;;;5093151;28;20184;-66
2024/01/26 03:15:58;;;;;;;0.00;0.00;;;9.10;99.90;;;;;;5092910;28;20184;-66
2024/01/26 03:18:24;;;;;;;0.00;0.00;;;9.00;99.90;;;;;;5093296;28;20216;-65
2024/01/26 03:20:49;;;;;;;0.00;0.00;;;9.10;99.90;;;;;;5093241;28;20200;-65
2024/01/26 03:23:15;;;;;;;0.00;0.00;;;9.00;99.90;;;;;;5093160;28;20627;-66
2024/01/26 03:25:40;;;;;;;0.00;0.00;;;9.00;99.90;;;;;;5092912;28;20188;-65
2024/01/26 03:28:07;;;;;;;0.00;0.00;;;9.10;99.90;;;;;;5092746;28;20237;-65
2024/01/26 03:30:33;;;;;;;0.00;0.00;;;9.10;99.90;;;;;;5092747;28;20314;-65
2024/01/26 03:32:59;;;;;;;0.00;0.00;;;9.10;99.90;;;;;;5093120;28;20175;-66
2024/01/26 03:35:26;;;;;;;0.10;0.10;;;9.10;99.90;;;;;;5092917;28;20184;-67
2024/01/26 03:37:52;;;;;;;0.08;0.08;;;9.10;99.90;;;;;;5092409;28;20195;-67
2024/01/26 03:40:17;;;;;;;0.00;0.00;;;9.10;99.90;;;;;;5086588;28;20234;-66
2024/01/26 03:42:43;;;;;;;0.00;0.00;;;9.10;99.90;;;;;;5092704;28;20168;-67
2024/01/26 03:45:09;;;;;;;0.00;0.00;;;9.20;99.90;;;;;;5091594;28;20187;-68
2024/01/26 03:47:34;;;;;;;0.00;0.00;;;9.20;99.90;;;;;;5092488;28;20168;-66
2024/01/26 03:50:00;;;;;;;0.00;0.00;;;9.20;99.90;;;;;;5092410;28;20247;-67
2024/01/26 03:52:25;;;;;;;0.00;0.00;;;9.20;99.90;;;;;;5091105;28;20198;-66
2024/01/26 03:54:51;;;;;;;0.00;0.00;;;9.20;99.90;;;;;;5092401;28;20270;-66
2024/01/26 03:57:17;;;;;;;0.00;0.00;;;9.20;99.90;;;;;;5092647;28;20580;-65
2024/01/26 03:59:42;;;;;;;0.00;0.00;;;9.20;99.90;;;;;;5092233;28;20222;-65
2024/01/26 04:02:08;;;;;;;0.00;0.00;;;9.20;99.90;;;;;;5091928;28;20177;-65
2024/01/26 04:04:33;;;;;;;0.00;0.00;;;9.20;99.90;;;;;;5092384;28;20650;-65
2024/01/26 04:06:59;;;;;;;0.00;0.00;;;9.20;99.90;;;;;;5092404;28;20180;-66
2024/01/26 04:09:24;;;;;;;0.00;0.00;;;9.20;99.90;;;;;;5092271;28;20208;-65
2024/01/26 04:11:50;;;;;;;0.00;0.00;;;9.20;99.90;;;;;;5090965;28;20230;-66
2024/01/26 04:14:15;;;;;;;0.00;0.00;;;9.30;99.90;;;;;;5092134;28;20695;-66
2024/01/26 04:16:41;;;;;;;0.00;0.00;;;9.30;99.90;;;;;;5090867;28;20184;-67
2024/01/26 04:19:06;;;;;;;0.00;0.00;;;9.30;99.90;;;;;;5092018;28;20176;-66
2024/01/26 04:21:32;;;;;;;0.00;0.00;;;9.30;99.90;;;;;;5091967;28;20642;-66
2024/01/26 04:23:57;;;;;;;0.00;0.00;;;9.30;99.90;;;;;;5091807;28;20181;-66
2024/01/26 04:26:23;;;;;;;0.00;0.00;;;9.30;99.90;;;;;;5091931;28;20180;-65
2024/01/26 04:28:49;;;;;;;0.03;0.03;;;9.30;99.90;;;;;;5091607;28;20608;-66
2024/01/26 04:31:14;;;;;;;0.00;0.00;;;9.30;99.90;;;;;;5090289;28;20279;-66
2024/01/26 04:33:40;;;;;;;0.00;0.00;;;9.30;99.90;;;;;;5091658;28;20172;-66
2024/01/26 04:36:09;;;;;;;0.00;0.00;;;9.30;99.90;;;;;;5090261;28;20180;-66
2024/01/26 04:38:37;;;;;;;0.00;0.00;;;9.30;99.90;;;;;;5091339;28;20193;-65
2024/01/26 04:41:03;;;;;;;0.00;0.00;;;9.20;99.90;;;;;;5081030;28;20262;-66
2024/01/26 04:43:31;;;;;;;0.00;0.00;;;9.20;99.90;;;;;;5091936;28;20262;-65
2024/01/26 04:45:57;;;;;;;0.00;0.00;;;9.20;99.90;;;;;;5091739;28;20175;-67
2024/01/26 04:48:22;;;;;;;0.00;0.00;;;9.10;99.90;;;;;;5091391;28;20643;-67
2024/01/26 04:50:48;;;;;;;0.35;0.13;;;9.10;99.90;;;;;;5091493;28;20220;-66
2024/01/26 04:53:15;;;;;;;0.00;0.00;;;9.10;99.90;;;;;;5124138;27;20183;-67
2024/01/26 04:55:41;;;;;;;0.00;0.00;;;9.00;99.90;;;;;;5090579;28;20585;-67
2024/01/26 04:58:06;;;;;;;0.00;0.00;;;9.00;99.90;;;;;;5089939;28;20392;-67
2024/01/26 05:00:32;;;;;;;0.00;0.00;;;9.00;99.90;;;;;;5089835;28;20177;-67
2024/01/26 05:02:57;;;;;;;0.00;0.00;;;9.00;99.90;;;;;;5089302;28;20635;-66
2024/01/26 05:05:23;;;;;;;0.00;0.00;;;9.00;99.90;;;;;;5091323;28;20209;-66
2024/01/26 05:07:48;;;;;;;0.00;0.00;;;9.00;99.90;;;;;;5091211;28;20171;-66
2024/01/26 05:10:15;;;;;;;0.00;0.00;;;9.00;99.90;;;;;;5091154;28;20226;-64
2024/01/26 05:12:41;;;;;;;0.00;0.00;;;9.10;99.90;;;;;;5091356;28;20168;-63
2024/01/26 05:15:11;;;;;;;0.00;0.00;;;9.10;99.90;;;;;;5091263;28;20605;-64
2024/01/26 05:17:39;;;;;;;0.00;0.00;;;9.10;99.90;;;;;;5089877;28;20179;-64
2024/01/26 05:20:06;;;;;;;0.00;0.00;;;9.10;99.90;;;;;;5091342;28;20188;-61
2024/01/26 05:22:31;;;;;;;0.00;0.00;;;9.10;99.90;;;;;;5090845;28;20184;-66
2024/01/26 05:24:57;;;;;;;0.00;0.00;;;9.10;99.90;;;;;;5091242;28;20191;-63
2024/01/26 05:27:22;;;;;;;0.00;0.00;;;9.10;99.90;;;;;;5090684;28;20250;-64
2024/01/26 05:29:48;;;;;;;0.00;0.00;;;9.10;99.90;;;;;;5090482;28;20212;-62
2024/01/26 05:32:14;;;;;;;0.00;0.00;;;9.10;99.90;;;;;;5091134;28;20689;-63
2024/01/26 05:34:40;;;;;;;0.00;0.00;;;9.10;99.90;;;;;;5091156;28;20184;-64
2024/01/26 05:37:05;;;;;;;0.00;0.00;;;9.10;99.90;;;;;;5091354;28;20195;-64
2024/01/26 05:39:32;;;;;;;0.00;0.00;;;9.00;99.90;;;;;;5091014;28;20703;-64
2024/01/26 05:41:58;;;;;;;0.03;0.00;;;9.00;99.90;;;;;;5090875;28;20191;-62
2024/01/26 05:44:23;;;;;;;0.00;0.00;;;9.00;99.90;;;;;;5091184;28;20180;-63
2024/01/26 05:46:49;;;;;;;0.00;0.00;;;9.00;99.90;;;;;;5090981;28;20176;-63
2024/01/26 05:49:14;;;;;;;0.05;0.05;;;9.00;99.90;;;;;;5090668;28;20208;-63
2024/01/26 05:51:40;;;;;;;0.00;0.00;;;9.00;99.90;;;;;;5091059;28;20207;-63
2024/01/26 05:54:05;;;;;;;0.00;0.00;;;9.00;99.90;;;;;;5091264;28;20172;-64
2024/01/26 05:56:31;;;;;;;0.00;0.00;;;9.00;99.90;;;;;;5090990;28;20658;-64
2024/01/26 05:58:57;;;;;;;0.00;0.00;;;9.00;99.90;;;;;;5090795;28;20188;-66
2024/01/26 06:01:22;;;;;;;0.00;0.00;;;8.90;99.90;;;;;;5091004;28;20591;-64
2024/01/26 06:03:47;;;;;;;0.00;0.00;;;9.00;99.90;;;;;;5090968;28;20188;-65
2024/01/26 06:06:14;;;;;;;0.00;0.00;;;8.90;99.90;;;;;;5090354;28;20278;-65
2024/01/26 06:08:43;;;;;;;0.00;0.00;;;9.00;99.90;;;;;;5093287;28;20654;-65
2024/01/26 06:11:09;;;;;;;0.00;0.00;;;9.00;99.90;;;;;;5095046;28;20654;-64
2024/01/26 06:13:35;;;;;;;0.00;0.00;;;9.00;99.90;;;;;;5094506;28;20192;-65
2024/01/26 06:16:02;;;;;;;0.00;0.00;;;9.00;99.90;;;;;;5095003;28;20184;-64
2024/01/26 06:18:28;;;;;;;0.00;0.00;;;9.00;99.90;;;;;;5094358;28;20183;-65
2024/01/26 06:20:53;;;;;;;0.00;0.00;;;9.00;99.90;;;;;;5094785;28;20263;-65
2024/01/26 06:23:19;;;;;;;0.00;0.00;;;9.00;99.90;;;;;;5094676;28;20172;-65
2024/01/26 06:25:44;;;;;;;0.00;0.00;;;9.00;99.90;;;;;;5094528;28;20283;-65
2024/01/26 06:28:10;;;;;;;0.00;0.00;;;9.00;99.90;;;;;;5094325;28;20180;-65
2024/01/26 06:30:35;;;;;;;0.00;0.00;;;9.00;99.90;;;;;;5089940;28;20204;-65
2024/01/26 06:33:02;;;;;;;0.00;0.00;;;9.00;99.90;;;;;;5075753;28;20184;-65
2024/01/26 06:35:28;;;;;;;0.00;0.00;;;9.00;99.90;;;;;;5079302;28;20773;-65
2024/01/26 06:37:53;;;;;;;0.20;0.20;;;9.00;99.90;;;;;;5094383;28;20241;-65
2024/01/26 06:40:19;;;;;;;0.10;0.10;;;9.00;99.90;;;;;;5094182;28;20224;-64
2024/01/26 06:42:44;;;;;;;0.00;0.00;;;9.00;99.90;;;;;;5094170;28;20263;-65
2024/01/26 06:45:11;;;;;;;0.00;0.00;;;9.00;99.90;;;;;;5094126;28;20176;-65
2024/01/26 06:47:37;;;;;;;0.17;0.17;;;9.00;99.90;;;;;;5094103;28;20187;-65
2024/01/26 06:50:04;;;;;;;0.20;0.20;;;9.00;99.90;;;;;;5094099;28;20212;-65
2024/01/26 06:52:30;;;;;;;0.00;0.00;;;9.00;99.90;;;;;;5093953;28;20180;-64
2024/01/26 06:54:56;;;;;;;0.20;0.20;;;9.00;99.90;;;;;;5093162;28;20188;-65
2024/01/26 06:57:21;;;;;;;0.00;0.00;;;9.00;99.90;;;;;;5090773;28;21600;-65
2024/01/26 06:59:47;;;;;;;0.00;0.00;;;9.00;99.90;;;;;;5093407;28;20205;-65
2024/01/26 07:02:12;;;;;;;0.00;0.00;;;9.00;99.90;;;;;;5093743;28;20195;-65
2024/01/26 07:04:38;;;;;;;0.00;0.00;;;9.10;99.90;;;;;;5092470;28;20191;-65
2024/01/26 07:07:03;;;;;;;0.00;0.00;;;9.10;99.90;;;;;;5093047;28;20647;-64
2024/01/26 07:09:29;;;;;;;0.00;0.00;;;9.10;99.90;;;;;;5090963;28;20204;-65
2024/01/26 07:11:54;;;;;;;0.00;0.00;;;9.10;99.90;;;;;;5093487;28;20179;-65
2024/01/26 07:14:20;;;;;;;0.00;0.00;;;9.10;99.90;;;;;;5093587;28;20173;-65
2024/01/26 07:16:49;;;;;;;0.00;0.00;;;9.10;99.90;;;;;;5093749;28;20176;-64
2024/01/26 07:19:14;;;;;;;0.05;0.05;;;9.10;99.90;;;;;;5093513;28;20184;-64
2024/01/26 07:21:40;;;;;;;0.00;0.00;;;9.10;99.90;;;;;;5093591;28;20183;-64
2024/01/26 07:24:06;;;;;;;0.00;0.00;;;9.10;99.90;;;;;;5093744;28;20585;-65
2024/01/26 07:26:31;;;;;;;0.00;0.00;;;9.10;99.90;;;;;;5093393;28;20657;-65
2024/01/26 07:28:57;;;;;;;0.00;0.00;;;9.20;99.90;;;;;;5093146;28;20226;-64
2024/01/26 07:31:23;;;;;;;0.00;0.00;;;9.20;99.90;;;;;;5093492;28;20176;-64
2024/01/26 07:33:48;;;;;;;0.00;0.00;;;9.20;99.90;;;;;;5093314;28;20172;-64
2024/01/26 07:36:14;;;;;;;0.00;0.00;;;9.20;99.90;;;;;;5093315;28;20667;-64
2024/01/26 07:38:39;;;;;;;0.00;0.00;;;9.30;99.90;;;;;;5094672;28;20247;-64
2024/01/26 07:41:05;;;;;;;0.00;0.00;;;9.30;99.90;;;;;;5096526;28;20200;-65
2024/01/26 07:43:31;;;;;;;0.00;0.00;;;9.30;99.90;;;;;;5097853;28;20251;-65
2024/01/26 07:45:56;;;;;;;0.00;0.00;;;9.40;99.90;;;;;;5097313;28;20172;-65
2024/01/26 07:48:22;;;;;;;0.00;0.00;;;9.40;99.90;;;;;;5097647;28;20172;-65
2024/01/26 07:50:47;;;;;;;0.00;0.00;;;9.40;99.90;;;;;;5095370;28;20726;-65
2024/01/26 07:53:13;;;;;;;0.00;0.00;;;9.40;99.90;;;;;;5093090;28;20242;-65
2024/01/26 07:55:40;;;;;;;0.00;0.00;;;9.50;99.90;;;;;;5097566;28;20628;-65
2024/01/26 07:58:06;;;;;;;0.00;0.00;;;9.50;99.90;;;;;;5098913;28;20271;-65
2024/01/26 08:00:32;;;;;;;0.20;0.20;;;9.50;99.90;;;;;;5098063;28;20176;-65
2024/01/26 08:02:58;;;;;;;0.00;0.00;;;9.50;99.90;;;;;;5093047;28;20254;-66
2024/01/26 08:05:23;;;;;;;0.00;0.00;;;9.60;99.90;;;;;;5092776;28;20205;-65
2024/01/26 08:07:49;;;;;;;0.00;0.00;;;9.60;99.90;;;;;;5092496;28;20199;-65
2024/01/26 08:10:15;;;;;;;0.00;0.00;;;9.60;99.90;;;;;;5092653;28;20216;-66
2024/01/26 08:12:40;;;;;;;0.00;0.00;;;9.70;99.90;;;;;;5092664;28;20570;-65
2024/01/26 08:15:06;;;;;;;0.00;0.00;;;9.70;99.90;;;;;;5092863;28;20191;-66
2024/01/26 08:17:33;;;;;;;0.00;0.00;;;9.80;99.90;;;;;;5092563;28;20532;-64
2024/01/26 08:19:58;;;;;;;0.00;0.00;;;9.80;99.90;;;;;;5092664;28;20203;-65
2024/01/26 08:22:25;;;;;;;0.00;0.00;;;9.90;99.90;;;;;;5092491;28;20203;-65
2024/01/26 08:24:51;;;;;;;0.00;0.00;;;9.90;99.90;;;;;;5092401;28;20176;-66
2024/01/26 08:27:17;;;;;;;0.00;0.00;;;9.90;99.90;;;;;;5092419;28;20221;-66
2024/01/26 08:29:42;;;;;;;0.00;0.00;;;10.00;99.90;;;;;;5091980;28;20257;-66
2024/01/26 08:32:08;;;;;;;0.00;0.00;;;10.00;99.90;;;;;;5091693;28;20179;-66
2024/01/26 08:34:34;;;;;;;0.00;0.00;;;10.10;99.90;;;;;;5091023;28;20176;-66
2024/01/26 08:37:00;;;;;;;0.00;0.00;;;10.10;99.90;;;;;;5092426;28;20180;-66
2024/01/26 08:39:25;;;;;;;0.05;0.05;;;10.20;99.90;;;;;;5091809;28;20220;-66
2024/01/26 08:41:51;;;;;;;0.00;0.00;;;10.10;99.90;;;;;;5091969;28;20203;-66
2024/01/26 08:44:16;;;;;;;0.00;0.00;;;10.20;99.90;;;;;;5092015;28;20172;-64
2024/01/26 08:46:42;;;;;;;0.00;0.00;;;10.20;99.90;;;;;;5091826;28;20226;-66
2024/01/26 08:49:07;;;;;;;0.00;0.00;;;10.20;99.90;;;;;;5091852;28;20176;-65
2024/01/26 08:51:34;;;;;;;0.00;0.00;;;10.20;99.90;;;;;;5091878;28;20263;-66
2024/01/26 08:53:59;;;;;;;0.00;0.00;;;10.20;99.90;;;;;;5092040;28;20176;-66
2024/01/26 08:56:25;;;;;;;0.00;0.00;;;10.20;99.90;;;;;;5091953;28;20677;-65
2024/01/26 08:58:51;;;;;;;0.00;0.00;;;10.20;99.90;;;;;;5091760;28;20614;-66
2024/01/26 09:01:16;;;;;;;0.00;0.00;;;10.20;99.90;;;;;;5090621;28;20581;-65
2024/01/26 09:03:42;;;;;;;0.00;0.00;;;10.30;99.90;;;;;;5091639;28;20623;-66
2024/01/26 09:06:10;;;;;;;0.00;0.00;;;10.30;99.90;;;;;;5090333;28;20655;-66
2024/01/26 09:08:36;;;;;;;0.00;0.00;;;10.30;99.90;;;;;;5091700;28;20187;-67
2024/01/26 09:11:02;;;;;;;0.10;0.10;;;10.30;99.90;;;;;;5091561;28;20212;-67
2024/01/26 09:13:27;;;;;;;0.00;0.00;;;10.30;99.90;;;;;;5091403;28;20180;-65
2024/01/26 09:15:53;;;;;;;0.00;0.00;;;10.30;99.90;;;;;;5091578;28;20575;-66
2024/01/26 09:18:18;;;;;;;0.00;0.00;;;10.30;99.90;;;;;;5091442;28;20180;-66
2024/01/26 09:20:48;;;;;;;0.00;0.00;;;10.30;99.90;;;;;;5091501;28;20188;-66
2024/01/26 09:23:14;;;;;;;0.00;0.00;;;10.30;99.90;;;;;;5091617;28;20172;-66
2024/01/26 09:25:39;;;;;;;0.00;0.00;;;10.30;99.90;;;;;;5091464;28;20262;-65
2024/01/26 09:28:05;;;;;;;0.00;0.00;;;10.30;99.90;;;;;;5091232;28;20194;-66
2024/01/26 09:30:30;;;;;;;0.30;0.30;;;10.30;99.90;;;;;;5091240;28;20223;-65
2024/01/26 09:32:56;;;;;;;0.00;0.00;;;10.40;99.90;;;;;;5091294;28;20168;-66
2024/01/26 09:35:22;;;;;;;0.00;0.00;;;10.40;99.90;;;;;;5091386;28;20666;-66
2024/01/26 09:37:48;;;;;;;0.00;0.00;;;10.40;99.90;;;;;;5090423;28;20655;-66
2024/01/26 09:40:14;;;;;;;0.00;0.00;;;10.50;99.90;;;;;;5088468;28;20254;-66
2024/01/26 09:42:40;;;;;;;0.03;0.03;;;10.50;99.90;;;;;;5092916;28;20180;-66
2024/01/26 09:45:07;;;;;;;0.00;0.00;;;10.50;99.90;;;;;;5093868;28;20172;-65
2024/01/26 09:47:34;;;;;;;0.00;0.00;;;10.50;99.90;;;;;;5095191;28;20183;-66
2024/01/26 09:50:04;;;;;;;0.00;0.00;;;10.50;99.90;;;;;;5095092;28;20204;-66
2024/01/26 09:52:30;;;;;;;0.00;0.00;;;10.50;99.90;;;;;;5095080;28;20190;-66
2024/01/26 09:54:56;;;;;;;0.00;0.00;;;10.50;99.90;;;;;;5094853;28;20182;-66
2024/01/26 09:57:22;;;;;;;0.00;0.00;;;10.60;99.90;;;;;;5094960;28;20626;-66
2024/01/26 09:59:50;;;;;;;1.00;0.75;;;10.60;99.90;;;;;;5094742;28;20729;-66
2024/01/26 10:02:17;;;;;;;0.00;0.00;;;10.70;99.90;;;;;;5094525;28;20646;-66
2024/01/26 10:04:43;;;;;;;0.00;0.00;;;10.70;99.90;;;;;;5094880;28;20640;-67
2024/01/26 10:07:08;;;;;;;0.00;0.00;;;10.70;99.90;;;;;;5094211;28;20199;-66
2024/01/26 10:09:35;;;;;;;0.00;0.00;;;10.80;99.90;;;;;;5094665;28;20208;-65
2024/01/26 10:12:01;;;;;;;0.00;0.00;;;10.80;99.90;;;;;;5094975;28;20180;-66
2024/01/26 10:14:27;;;;;;;0.10;0.10;;;10.90;99.90;;;;;;5094280;28;20207;-64
2024/01/26 10:17:02;;;;;;;0.10;0.10;;;10.90;99.90;;;;;;5094812;28;20616;-64
2024/01/26 10:19:29;;;;;;;0.43;0.43;;;11.30;99.90;;;;;;5093707;28;20641;-65
2024/01/26 10:21:55;;;;;;;0.00;0.00;;;11.40;99.90;;;;;;5090898;28;20176;-66
2024/01/26 10:24:23;;;;;;;0.20;0.20;;;11.30;99.90;;;;;;5093891;28;20180;-66
2024/01/26 10:26:50;;;;;;;0.20;0.20;;;11.30;99.90;;;;;;5093216;28;20187;-65
2024/01/26 10:29:15;;;;;;;0.00;0.00;;;11.20;99.90;;;;;;5094034;28;20602;-65
2024/01/26 10:31:41;;;;;;;0.00;0.00;;;11.20;99.90;;;;;;5094129;28;20192;-65
2024/01/26 10:34:13;;;;;;;0.00;0.00;;;11.20;99.90;;;;;;5094078;28;20168;-66
2024/01/26 10:36:43;;;;;;;0.00;0.00;;;11.20;99.90;;;;;;5094526;28;20678;-65
2024/01/26 10:39:22;;;;;;;0.15;0.15;;;11.20;99.90;;;;;;5094325;28;20704;-66
2024/01/26 10:41:50;;;;;;;0.38;0.38;;;11.20;99.90;;;;;;5094302;28;20204;-66
2024/01/26 10:44:16;;;;;;;0.38;0.38;;;11.20;99.90;;;;;;5094442;28;20180;-66
2024/01/26 10:46:42;;;;;;;0.00;0.00;;;11.20;99.90;;;;;;5092864;28;20180;-66
2024/01/26 10:49:10;;;;;;;0.08;0.08;;;11.20;99.90;;;;;;5092977;28;20188;-66
2024/01/26 10:51:42;;;;;;;1.77;0.28;;;11.30;99.90;;;;;;5092790;28;20183;-66
2024/01/26 10:54:12;;;;;;;0.00;0.00;;;11.20;99.90;;;;;;5093551;28;20234;-66
2024/01/26 10:56:38;;;;;;;0.55;0.55;;;11.20;99.90;;;;;;5094167;28;20207;-66
2024/01/26 10:59:06;;;;;;;0.57;0.57;;;11.20;99.90;;;;;;5093940;28;20243;-66
2024/01/26 11:01:32;;;;;;;0.10;0.10;;;11.20;99.90;;;;;;5094029;28;20176;-66
2024/01/26 11:03:59;;;;;;;0.00;0.00;;;11.20;99.90;;;;;;5094114;28;20201;-66
2024/01/26 11:06:26;;;;;;;0.00;0.00;;;11.20;99.90;;;;;;5093892;28;20175;-65
2024/01/26 11:08:59;;;;;;;0.00;0.00;;;11.20;99.90;;;;;;5093941;28;20259;-66
2024/01/26 11:11:30;;;;;;;0.03;0.03;;;11.20;99.90;;;;;;5093718;28;20195;-65
2024/01/26 11:13:59;;;;;;;0.00;0.00;;;11.30;99.90;;;;;;5093969;28;20264;-66
2024/01/26 11:16:25;;;;;;;0.32;0.32;;;11.20;99.90;;;;;;5093682;28;20176;-66
2024/01/26 11:18:59;;;;;;;0.00;0.00;;;11.20;99.90;;;;;;5093679;28;20247;-66
2024/01/26 11:21:34;;;;;;;0.00;0.00;;;11.20;99.90;;;;;;5093558;28;20192;-65
2024/01/26 11:24:14;;;;;;;0.00;0.00;;;11.20;99.90;;;;;;5093737;28;20180;-66
2024/01/26 11:26:53;;;;;;;0.00;0.00;;;11.20;99.90;;;;;;5093544;28;20522;-65
2024/01/26 11:29:19;;;;;;;0.00;0.00;;;11.10;99.90;;;;;;5093605;28;20204;-66
2024/01/26 11:31:45;;;;;;;0.00;0.00;;;11.00;99.90;;;;;;5093301;28;20180;-65
2024/01/26 11:34:21;;;;;;;0.05;0.05;;;11.00;99.90;;;;;;5093535;28;20164;-66
2024/01/26 11:36:47;;;;;;;0.00;0.00;;;10.90;99.90;;;;;;5093247;28;20187;-65
2024/01/26 11:39:15;;;;;;;0.00;0.00;;;10.90;99.90;;;;;;5093220;28;20215;-66
2024/01/26 11:41:45;;;;;;;0.00;0.00;;;10.80;99.90;;;;;;5093238;28;20577;-66
2024/01/26 11:44:30;;;;;;;0.00;0.00;;;10.80;99.90;;;;;;5093301;28;20187;-66
2024/01/26 11:46:56;;;;;;;0.00;0.00;;;10.80;99.90;;;;;;5093165;28;20537;-65
2024/01/26 11:49:21;;;;;;;0.00;0.00;;;10.80;99.90;;;;;;5092041;28;20207;-66
2024/01/26 11:51:48;;;;;;;0.00;0.00;;;10.80;99.90;;;;;;5091886;28;20184;-66
2024/01/26 11:54:13;;;;;;;0.08;0.08;;;10.80;99.90;;;;;;5093169;28;20183;-66
2024/01/26 11:56:41;;;;;;;0.00;0.00;;;10.80;99.90;;;;;;5092975;28;20327;-66
2024/01/26 11:59:07;;;;;;;1.00;1.00;;;10.80;99.90;;;;;;5092983;28;20184;-66
2024/01/26 12:01:32;;;;;;;0.00;0.00;;;10.70;99.90;;;;;;5091620;28;20544;-65
2024/01/26 12:03:58;;;;;;;0.00;0.00;;;10.70;99.90;;;;;;5092983;28;20179;-66
2024/01/26 12:06:24;;;;;;;0.45;0.45;;;10.60;99.90;;;;;;5091742;28;20282;-65
2024/01/26 12:08:50;;;;;;;0.45;0.45;;;10.60;99.90;;;;;;5091573;28;20259;-65
2024/01/26 12:11:17;;;;;;;0.00;0.00;;;10.60;99.90;;;;;;5092876;28;20308;-66
2024/01/26 12:13:44;;;;;;;0.08;0.08;;;10.60;99.90;;;;;;5092599;28;20519;-66
2024/01/26 12:16:10;;;;;;;0.00;0.00;;;10.50;99.90;;;;;;5092802;28;20643;-66
2024/01/26 12:18:36;;;;;;;0.00;0.00;;;10.50;99.90;;;;;;5092577;28;20191;-66
2024/01/26 12:21:02;;;;;;;0.00;0.00;;;10.50;99.90;;;;;;5092581;28;20177;-66
2024/01/26 12:23:27;;;;;;;0.00;0.00;;;10.50;99.90;;;;;;5092612;28;20650;-65
2024/01/26 12:25:53;;;;;;;0.00;0.00;;;10.50;99.90;;;;;;5092504;28;20283;-66
2024/01/26 12:28:20;;;;;;;0.00;0.00;;;10.50;99.90;;;;;;5092433;28;20176;-65
2024/01/26 12:30:47;;;;;;;0.00;0.00;;;10.40;99.90;;;;;;5092300;28;20216;-66
2024/01/26 12:33:13;;;;;;;0.00;0.00;;;10.40;99.90;;;;;;5092509;28;20555;-66
2024/01/26 12:35:42;;;;;;;0.00;0.00;;;10.50;99.90;;;;;;5092435;28;20176;-66
2024/01/26 12:38:08;;;;;;;0.08;0.08;;;10.40;99.90;;;;;;5092368;28;20175;-66
2024/01/26 12:40:34;;;;;;;0.00;0.00;;;10.40;99.90;;;;;;5091998;28;20709;-66
2024/01/26 12:43:01;;;;;;;0.03;0.03;;;10.40;99.90;;;;;;5092235;28;20180;-66
2024/01/26 12:45:27;;;;;;;0.00;0.00;;;10.40;99.90;;;;;;5092139;28;20180;-65
2024/01/26 12:47:53;;;;;;;0.00;0.00;;;10.40;99.90;;;;;;5092092;28;20612;-66